sensor_id;sensor_type;location;lat;lon;timestamp;temperature;humidity
10868;DHT22;62667;48.698;8.762;2023-09-19T05:19:06;15.90;91.50
10868;DHT22;62667;48.698;8.762;2023-09-19T05:21:33;15.80;90.60
10868;DHT22;62667;48.698;8.762;2023-09-19T05:24:00;15.80;91.00
10868;DHT22;62667;48.698;8.762;2023-09-19T05:26:29;15.90;91.20
10868;DHT22;62667;48.698;8.762;2023-09-19T05:28:56;15.90;91.50
10868;DHT22;62667;48.698;8.762;2023-09-19T05:31:23;15.90;92.00
10868;DHT22;62667;48.698;8.762;2023-09-19T05:33:51;15.90;90.80
10868;DHT22;62667;48.698;8.762;2023-09-19T05:36:20;15.80;90.70
10868;DHT22;62667;48.698;8.762;2023-09-19T05:41:22;15.60;90.80
10868;DHT22;62667;48.698;8.762;2023-09-19T05:43:51;15.40;90.10
10868;DHT22;62667;48.698;8.762;2023-09-19T05:46:18;15.40;91.40
10868;DHT22;62667;48.698;8.762;2023-09-19T05:48:46;15.40;91.40
10868;DHT22;62667;48.698;8.762;2023-09-19T05:51:15;15.50;91.80
10868;DHT22;62667;48.698;8.762;2023-09-19T05:53:44;15.50;92.30
10868;DHT22;62667;48.698;8.762;2023-09-19T05:56:14;15.50;91.20
10868;DHT22;62667;48.698;8.762;2023-09-19T05:58:41;15.50;89.90
10868;DHT22;62667;48.698;8.762;2023-09-19T06:01:11;15.40;89.40
10868;DHT22;62667;48.698;8.762;2023-09-19T06:03:38;15.40;88.20
10868;DHT22;62667;48.698;8.762;2023-09-19T06:06:05;15.30;85.70
10868;DHT22;62667;48.698;8.762;2023-09-19T06:08:33;15.40;86.40
10868;DHT22;62667;48.698;8.762;2023-09-19T06:11:03;15.40;86.60
10868;DHT22;62667;48.698;8.762;2023-09-19T06:13:35;15.50;86.10
10868;DHT22;62667;48.698;8.762;2023-09-19T06:18:33;15.40;86.70
10868;DHT22;62667;48.698;8.762;2023-09-19T06:21:00;15.50;87.50
10868;DHT22;62667;48.698;8.762;2023-09-19T06:23:33;15.50;88.20
10868;DHT22;62667;48.698;8.762;2023-09-19T06:26:01;15.60;86.30
10868;DHT22;62667;48.698;8.762;2023-09-19T06:28:29;15.60;86.00
10868;DHT22;62667;48.698;8.762;2023-09-19T06:30:56;15.70;85.50
10868;DHT22;62667;48.698;8.762;2023-09-19T06:33:23;15.70;86.50
10868;DHT22;62667;48.698;8.762;2023-09-19T06:35:52;15.80;86.10
10868;DHT22;62667;48.698;8.762;2023-09-19T06:38:24;15.70;99.90
10868;DHT22;62667;48.698;8.762;2023-09-19T06:40:53;15.60;81.70
10868;DHT22;62667;48.698;8.762;2023-09-19T06:43:20;15.70;81.30
10868;DHT22;62667;48.698;8.762;2023-09-19T06:45:47;15.60;81.20
10868;DHT22;62667;48.698;8.762;2023-09-19T06:48:15;15.60;82.20
10868;DHT22;62667;48.698;8.762;2023-09-19T06:50:42;15.70;83.00
10868;DHT22;62667;48.698;8.762;2023-09-19T06:53:12;15.70;82.20
10868;DHT22;62667;48.698;8.762;2023-09-19T06:55:40;15.60;82.20
10868;DHT22;62667;48.698;8.762;2023-09-19T06:58:09;15.60;83.00
10868;DHT22;62667;48.698;8.762;2023-09-19T07:00:36;15.50;84.30
10868;DHT22;62667;48.698;8.762;2023-09-19T07:03:05;15.60;82.80
10868;DHT22;62667;48.698;8.762;2023-09-19T07:05:36;15.60;83.50
10868;DHT22;62667;48.698;8.762;2023-09-19T07:08:05;15.60;83.50
10868;DHT22;62667;48.698;8.762;2023-09-19T07:10:38;15.60;84.20
10868;DHT22;62667;48.698;8.762;2023-09-19T07:20:36;15.60;82.90
10868;DHT22;62667;48.698;8.762;2023-09-19T07:23:04;15.70;83.20
10868;DHT22;62667;48.698;8.762;2023-09-19T07:25:31;15.70;82.90
10868;DHT22;62667;48.698;8.762;2023-09-19T07:28:00;15.80;82.40
10868;DHT22;62667;48.698;8.762;2023-09-19T07:30:28;16.00;80.20
10868;DHT22;62667;48.698;8.762;2023-09-19T07:35:23;16.10;79.30
10868;DHT22;62667;48.698;8.762;2023-09-19T07:37:52;16.10;80.00
10868;DHT22;62667;48.698;8.762;2023-09-19T07:40:21;16.00;79.20
10868;DHT22;62667;48.698;8.762;2023-09-19T07:42:49;16.10;78.90
10868;DHT22;62667;48.698;8.762;2023-09-19T07:45:17;16.30;77.80
10868;DHT22;62667;48.698;8.762;2023-09-19T07:47:47;16.40;79.50
10868;DHT22;62667;48.698;8.762;2023-09-19T07:50:16;16.50;77.90
10868;DHT22;62667;48.698;8.762;2023-09-19T07:52:44;16.70;77.90
10868;DHT22;62667;48.698;8.762;2023-09-19T07:55:11;16.80;74.90
10868;DHT22;62667;48.698;8.762;2023-09-19T07:57:42;16.80;75.30
10868;DHT22;62667;48.698;8.762;2023-09-19T08:00:12;16.90;77.60
10868;DHT22;62667;48.698;8.762;2023-09-19T08:02:43;17.20;76.30
10868;DHT22;62667;48.698;8.762;2023-09-19T08:05:12;16.90;78.20
10868;DHT22;62667;48.698;8.762;2023-09-19T08:07:42;16.90;74.10
10868;DHT22;62667;48.698;8.762;2023-09-19T08:10:11;16.80;73.40
10868;DHT22;62667;48.698;8.762;2023-09-19T08:12:42;16.80;77.20
10868;DHT22;62667;48.698;8.762;2023-09-19T08:15:13;16.70;76.10
10868;DHT22;62667;48.698;8.762;2023-09-19T08:17:40;16.70;76.00
10868;DHT22;62667;48.698;8.762;2023-09-19T08:20:11;16.80;75.70
10868;DHT22;62667;48.698;8.762;2023-09-19T08:22:43;16.70;73.80
10868;DHT22;62667;48.698;8.762;2023-09-19T08:25:13;16.80;72.40
10868;DHT22;62667;48.698;8.762;2023-09-19T08:27:44;16.80;72.80
10868;DHT22;62667;48.698;8.762;2023-09-19T08:30:13;16.80;74.60
10868;DHT22;62667;48.698;8.762;2023-09-19T08:32:43;16.70;72.90
10868;DHT22;62667;48.698;8.762;2023-09-19T08:35:13;16.80;72.20
10868;DHT22;62667;48.698;8.762;2023-09-19T08:37:41;17.00;70.70
10868;DHT22;62667;48.698;8.762;2023-09-19T08:40:11;17.10;73.20
10868;DHT22;62667;48.698;8.762;2023-09-19T09:02:59;17.10;64.00
10868;DHT22;62667;48.698;8.762;2023-09-19T09:08:03;17.40;62.30
10868;DHT22;62667;48.698;8.762;2023-09-19T09:10:32;17.30;62.10
10868;DHT22;62667;48.698;8.762;2023-09-19T09:13:00;17.30;63.30
10868;DHT22;62667;48.698;8.762;2023-09-19T09:15:35;17.30;61.30
10868;DHT22;62667;48.698;8.762;2023-09-19T09:18:04;17.30;76.70
10868;DHT22;62667;48.698;8.762;2023-09-19T09:20:32;17.40;70.30
10868;DHT22;62667;48.698;8.762;2023-09-19T09:22:59;17.40;60.50
10868;DHT22;62667;48.698;8.762;2023-09-19T09:25:46;17.60;62.90
10868;DHT22;62667;48.698;8.762;2023-09-19T09:28:20;17.60;60.00
10868;DHT22;62667;48.698;8.762;2023-09-19T09:30:47;17.60;59.00
10868;DHT22;62667;48.698;8.762;2023-09-19T09:33:16;17.70;61.60
10868;DHT22;62667;48.698;8.762;2023-09-19T09:35:53;17.90;62.70
10868;DHT22;62667;48.698;8.762;2023-09-19T09:40:54;17.70;59.40
10868;DHT22;62667;48.698;8.762;2023-09-19T09:46:08;17.50;60.50
10868;DHT22;62667;48.698;8.762;2023-09-19T09:48:58;17.70;61.00
10868;DHT22;62667;48.698;8.762;2023-09-19T09:51:44;17.90;59.70
10868;DHT22;62667;48.698;8.762;2023-09-19T09:54:15;17.80;59.60
10868;DHT22;62667;48.698;8.762;2023-09-19T09:59:43;17.90;59.70
10868;DHT22;62667;48.698;8.762;2023-09-19T10:02:17;17.90;60.30
10868;DHT22;62667;48.698;8.762;2023-09-19T10:04:52;18.20;59.50
10868;DHT22;62667;48.698;8.762;2023-09-19T10:07:28;18.30;58.80
10868;DHT22;62667;48.698;8.762;2023-09-19T10:10:01;18.30;57.50
10868;DHT22;62667;48.698;8.762;2023-09-19T10:17:46;18.40;54.10
10868;DHT22;62667;48.698;8.762;2023-09-19T10:20:15;18.30;54.10
10868;DHT22;62667;48.698;8.762;2023-09-19T10:22:55;18.70;50.10
10868;DHT22;62667;48.698;8.762;2023-09-19T10:43:02;18.10;46.60
10868;DHT22;62667;48.698;8.762;2023-09-19T10:50:32;18.20;48.00
